Hanseatic Scout — V2BM2 — position and weather

sailwx.info

Track history (hours):
 
Tides and Currents Weather Stations Pressure Air Temp Water Temp Dewpoint Dewpoint Depression Visibility Wind Speed Wind Dir Waves Ship Positions

Hanseatic Scout

Last reported at 2016-Dec-10 05:25 UTC. Time now 2016-Dec-10 07:05 UTC.
Position N 51°41' E 004°36'.

Length 89 m; draft 6.4 m.

Type: Ship. MMSI: 304867000.

Date/timePositionNaut miles runAvg speedWind from/ knotsBaromVisibWave heightAir tempDewpointWater temp
2016-Dec-10 05:25N 51°41' E 004°36'0 0.0
2016-Dec-10 04:19N 51°41' E 004°36'0 0.0
2016-Dec-10 03:25N 51°41' E 004°36'0 0.0
2016-Dec-10 00:19N 51°41' E 004°36'0 0.0
2016-Dec-09 23:19N 51°41' E 004°36'0 0.0
2016-Dec-09 22:31N 51°41' E 004°36'0 0.0
2016-Dec-09 21:04N 51°41' E 004°36'0 0.0
2016-Dec-09 19:13N 51°41' E 004°36'0 0.0
2016-Dec-09 18:07N 51°41' E 004°36'0 0.0
2016-Dec-09 17:31N 51°41' E 004°36'0 0.0
2016-Dec-09 16:25N 51°41' E 004°36'0 0.0
2016-Dec-09 14:33N 51°41' E 004°36'7 6.6
2016-Dec-09 13:33N 51°48' E 004°37'8 8.1
2016-Dec-09 12:34N 51°51' E 004°25'9 8.9
2016-Dec-09 11:34N 51°56' E 004°13'10 9.7
2016-Dec-09 10:34N 52°00' E 003°59'8 7.9
2016-Dec-09 09:33N 51°60' E 003°46'8 7.6
2016-Dec-09 08:33N 51°58' E 003°34'65 8.1
2016-Dec-09 00:29N 52°35' E 002°07'11 9.4
2016-Dec-08 23:20N 52°45' E 001°59'7 9.2
2016-Dec-08 22:33N 52°49' E 001°50'8 8.3
2016-Dec-08 21:33N 52°54' E 001°39'8 7.9
2016-Dec-08 20:34N 53°00' E 001°30'8 8.2
2016-Dec-08 19:34N 53°06' E 001°22'5 5.4
2016-Dec-08 18:34N 53°10' E 001°16'65 9.2
2016-Dec-08 11:33N 54°06' E 000°20'1110.4
2016-Dec-08 10:32N 54°14' E 000°09'1010.5
2016-Dec-08 09:34N 54°23' W 000°02'1010.5
2016-Dec-08 08:33N 54°31' W 000°13'1010.2
2016-Dec-08 07:34N 54°39' W 000°24'2310.4
2016-Dec-08 05:20N 54°55' W 000°53'12 9.5
2016-Dec-08 04:04N 55°06' W 001°02'7 9.7
2016-Dec-08 03:20N 55°12' W 001°04'8 9.7
2016-Dec-08 02:28N 55°21' W 001°07'9 9.7
2016-Dec-08 01:33N 55°30' W 001°10'  
Track history (hours):
 
Tides and Currents Weather Stations Pressure Air Temp Water Temp Dewpoint Dewpoint Depression Visibility Wind Speed Wind Dir Waves Ship Positions

Hanseatic Scout

Last reported at 2016-Dec-10 05:25 UTC. Time now 2016-Dec-10 07:05 UTC.
Position N 51°41' E 004°36'.

Length 89 m; draft 6.4 m.

Type: Ship. MMSI: 304867000.

Date/timePositionNaut miles runAvg speedWind from/ knotsBaromVisibWave heightAir tempDewpointWater temp
2016-Dec-10 05:25N 51°41' E 004°36'0 0.0
2016-Dec-10 04:19N 51°41' E 004°36'0 0.0
2016-Dec-10 03:25N 51°41' E 004°36'0 0.0
2016-Dec-10 00:19N 51°41' E 004°36'0 0.0
2016-Dec-09 23:19N 51°41' E 004°36'0 0.0
2016-Dec-09 22:31N 51°41' E 004°36'0 0.0
2016-Dec-09 21:04N 51°41' E 004°36'0 0.0
2016-Dec-09 19:13N 51°41' E 004°36'0 0.0
2016-Dec-09 18:07N 51°41' E 004°36'0 0.0
2016-Dec-09 17:31N 51°41' E 004°36'0 0.0
2016-Dec-09 16:25N 51°41' E 004°36'0 0.0
2016-Dec-09 14:33N 51°41' E 004°36'7 6.6
2016-Dec-09 13:33N 51°48' E 004°37'8 8.1
2016-Dec-09 12:34N 51°51' E 004°25'9 8.9
2016-Dec-09 11:34N 51°56' E 004°13'10 9.7
2016-Dec-09 10:34N 52°00' E 003°59'8 7.9
2016-Dec-09 09:33N 51°60' E 003°46'8 7.6
2016-Dec-09 08:33N 51°58' E 003°34'65 8.1
2016-Dec-09 00:29N 52°35' E 002°07'11 9.4
2016-Dec-08 23:20N 52°45' E 001°59'7 9.2
2016-Dec-08 22:33N 52°49' E 001°50'8 8.3
2016-Dec-08 21:33N 52°54' E 001°39'8 7.9
2016-Dec-08 20:34N 53°00' E 001°30'8 8.2
2016-Dec-08 19:34N 53°06' E 001°22'5 5.4
2016-Dec-08 18:34N 53°10' E 001°16'65 9.2
2016-Dec-08 11:33N 54°06' E 000°20'1110.4
2016-Dec-08 10:32N 54°14' E 000°09'1010.5
2016-Dec-08 09:34N 54°23' W 000°02'1010.5
2016-Dec-08 08:33N 54°31' W 000°13'1010.2
2016-Dec-08 07:34N 54°39' W 000°24'2310.4
2016-Dec-08 05:20N 54°55' W 000°53'12 9.5
2016-Dec-08 04:04N 55°06' W 001°02'7 9.7
2016-Dec-08 03:20N 55°12' W 001°04'8 9.7
2016-Dec-08 02:28N 55°21' W 001°07'9 9.7
2016-Dec-08 01:33N 55°30' W 001°10'  

Dump ship's entire track history